Airfield :







YOU CAN JOIN US ON...

 
LOGIN :

Register | Disclaimer

   EN    FR    IT 

 









Legend :    VFR   Marginal VFR   IFR   Intensive IFR   Very Intensive IFR
Visi :
Ceiling :
>= 8 km
>= 3000ft
5 to 8 km
1000 to 3000 ft
1500m to 5 km
500 to 1000 ft
800 to 1500m
200 to 500 ft
< 800m
< 200 ft
Symbols :   Thunderstorms  Fog  Heavy snow  Heavy precipitations  Wind > 20 kt







- Airport Elevation : 180 ft
- IATA code : YZV


CYZV - Sept-Iles

CURRENT METAR :
  • 221400Z 30006KT 30SM FEW260 05/M05 A3027 RMK CI1 SLP254

EXPIRED METARs :
  • 221300Z 31008KT 30SM FEW030 FEW260 04/M04 A3025 RMK SC1CI1 SC TR SLP250
  • 221200Z 28004KT 30SM FEW030 FEW140 FEW260 03/M02 A3024 RMK SC1AC1CI2 SC TR AC TR SLP245

TAF TAF CYZV
Valid from the 22 at 12:00 until the 23 at 12:00 UTC


221138Z 2212/2312 31005KT P6SM FEW030 FEW140 SCT260
BECMG 2218/2220 34008KT
BECMG 2220/2222 03008KT RMK NXT FCST BY 221800Z
CZUL FIR / North America



MET'MAP, your aeronautical weather chart ! - Copyright ORBIFLY December 2007 - Disclaimer

ORBIFLY MET'MAP TEAM :

Programming & Development : Alexandra Zaïnal
Concept & Development : Baudouin d'Aumeries
Co-Development & Prog : Marc-Olivier Méhu
Technical & hardware support : Manuel Goepfert

Contact : metmap@orbifly.com




SOURCES & CREDITS :

   NOAA